Time;durP1;ratioP1;P1;durP2;ratioP2;P2;SDS_P1;SDS_P2;PMS_P1;PMS_P2;Temp;Humidity;BMP_temperature;BMP_pressure;BME280_temperature;BME280_humidity;BME280_pressure;Samples;Min_cycle;Max_cycle;Signal;HPM_P1;HPM_P2
2023/04/12 00:02:15;;;;;;;;;;;10.80;57.50;;;6.20;100.00;95101.59;4991275;28;19952;-46
2023/04/12 00:04:41;;;;;;;;;;;10.80;57.50;;;6.19;100.00;95105.31;5006640;28;19905;-48
2023/04/12 00:07:08;;;;;;;;;;;10.80;57.50;;;6.18;100.00;95092.34;5030074;28;20386;-46
2023/04/12 00:09:35;;;;;;;;;;;10.80;57.50;;;6.18;100.00;95084.41;5031662;28;19953;-48
2023/04/12 00:12:01;;;;;;;;;;;10.80;57.60;;;6.18;100.00;95081.78;5030387;28;19905;-48
2023/04/12 00:14:28;;;;;;;;;;;10.80;57.70;;;6.17;100.00;95067.75;5030358;28;19904;-46
2023/04/12 00:16:54;;;;;;;;;;;10.80;57.70;;;6.18;100.00;95069.34;5021914;28;20362;-46
2023/04/12 00:19:20;;;;;;;;;;;10.80;57.70;;;6.20;100.00;95063.78;5012005;28;19952;-48
2023/04/12 00:21:46;;;;;;;;;;;10.70;57.70;;;6.21;100.00;95058.25;5012024;28;19976;-47
2023/04/12 00:24:12;;;;;;;;;;;10.70;57.70;;;6.11;100.00;95036.19;5011048;28;19912;-50
2023/04/12 00:26:38;;;;;;;;;;;10.70;57.80;;;6.04;100.00;95031.09;5011627;28;19916;-48
2023/04/12 00:29:04;;;;;;;;;;;10.80;57.80;;;6.10;100.00;95026.66;5010532;28;20287;-47
2023/04/12 00:31:29;;;;;;;;;;;10.70;57.80;;;6.05;100.00;95019.50;5013009;28;20071;-48
2023/04/12 00:33:55;;;;;;;;;;;10.70;57.90;;;6.09;100.00;95011.88;5032613;28;19984;-50
2023/04/12 00:36:21;;;;;;;;;;;10.70;57.90;;;6.11;100.00;95015.84;5015693;28;20000;-48
2023/04/12 00:38:47;;;;;;;;;;;10.70;57.90;;;6.11;100.00;95007.09;5015467;28;19908;-49
2023/04/12 00:41:17;;;;;;;;;;;10.70;58.00;;;6.16;100.00;95001.88;5013294;28;20275;-50
2023/04/12 00:43:42;;;;;;;;;;;10.70;58.00;;;6.14;100.00;95003.97;5015529;28;19995;-46
2023/04/12 00:46:11;;;;;;;;;;;10.70;58.10;;;6.11;100.00;94992.06;5014258;28;20003;-48
2023/04/12 00:48:38;;;;;;;;;;;10.70;58.10;;;6.10;100.00;94994.94;5014395;28;19986;-45
2023/04/12 00:51:06;;;;;;;;;;;10.70;58.10;;;6.11;100.00;94989.41;5015404;28;19905;-46
2023/04/12 00:53:33;;;;;;;;;;;10.70;58.10;;;6.12;100.00;94977.00;5028509;28;20374;-48
2023/04/12 00:56:00;;;;;;;;;;;10.70;58.20;;;6.14;100.00;94969.59;5034659;28;20390;-46
2023/04/12 00:58:26;;;;;;;;;;;10.70;58.20;;;6.16;100.00;94968.28;5033681;28;19995;-49
2023/04/12 01:00:53;;;;;;;;;;;10.70;58.30;;;6.18;100.00;94965.41;5019580;28;20003;-47
2023/04/12 01:03:23;;;;;;;;;;;10.80;58.30;;;6.17;100.00;94959.31;5015151;28;20013;-48
2023/04/12 01:06:14;;;;;;;;;;;10.80;58.30;;;6.14;100.00;94965.13;5013007;28;19905;-47
2023/04/12 01:09:20;;;;;;;;;;;10.70;58.30;;;6.16;100.00;94951.63;5013655;28;20012;-47
2023/04/12 01:12:28;;;;;;;;;;;10.80;58.30;;;6.14;100.00;94946.59;5030137;28;19999;-50
2023/04/12 01:15:11;;;;;;;;;;;10.80;58.30;;;6.13;100.00;94946.84;5018920;28;20363;-48
2023/04/12 01:17:51;;;;;;;;;;;10.80;58.40;;;6.14;100.00;94940.50;5018642;28;19928;-49
2023/04/12 01:20:22;;;;;;;;;;;10.80;58.50;;;6.15;100.00;94927.03;5014950;28;19916;-47
2023/04/12 01:23:35;;;;;;;;;;;10.80;58.40;;;6.16;100.00;94943.69;5012712;28;19905;-49
2023/04/12 01:26:31;;;;;;;;;;;10.80;58.40;;;6.14;100.00;94938.66;5014794;28;19908;-48
2023/04/12 01:28:59;;;;;;;;;;;10.80;58.50;;;6.11;100.00;94931.25;5005803;28;19909;-47
2023/04/12 01:31:30;;;;;;;;;;;10.70;58.50;;;6.13;100.00;94934.41;5009845;28;20257;-48
2023/04/12 01:33:58;;;;;;;;;;;10.70;58.50;;;6.13;100.00;94925.69;4993572;28;19959;-47
2023/04/12 01:36:27;;;;;;;;;;;10.70;58.60;;;6.10;100.00;94905.81;5014521;28;19948;-50
2023/04/12 01:38:55;;;;;;;;;;;10.70;58.60;;;6.11;100.00;94896.88;5013327;28;20003;-47
2023/04/12 01:41:20;;;;;;;;;;;10.70;58.60;;;6.15;100.00;94890.00;5008933;28;20339;-49
2023/04/12 01:43:47;;;;;;;;;;;10.70;58.60;;;6.15;100.00;94899.78;4994000;28;19915;-49
2023/04/12 01:46:21;;;;;;;;;;;10.80;58.70;;;6.11;100.00;94901.34;4996505;28;19990;-47
2023/04/12 01:48:52;;;;;;;;;;;10.80;58.70;;;6.14;100.00;94892.91;5012866;28;19955;-47
2023/04/12 01:52:00;;;;;;;;;;;10.80;58.70;;;6.11;100.00;94881.00;5014341;28;19911;-48
2023/04/12 01:54:36;;;;;;;;;;;10.80;58.70;;;5.98;100.00;94853.13;4994451;28;19909;-46
2023/04/12 01:57:04;;;;;;;;;;;10.80;58.70;;;5.85;100.00;94835.00;4993103;28;19906;-48
2023/04/12 01:59:50;;;;;;;;;;;10.70;58.70;;;5.96;100.00;94851.78;5002529;28;19905;-47
2023/04/12 02:02:17;;;;;;;;;;;10.70;58.70;;;5.97;100.00;94867.38;5009649;28;19905;-47
2023/04/12 02:04:45;;;;;;;;;;;10.60;58.80;;;5.97;100.00;94872.69;5007179;28;19904;-46
2023/04/12 02:07:13;;;;;;;;;;;10.60;58.90;;;5.96;100.00;94868.44;5032718;28;19953;-49
2023/04/12 02:09:39;;;;;;;;;;;10.60;58.90;;;6.00;100.00;94863.44;5032433;28;19962;-50
2023/04/12 02:12:06;;;;;;;;;;;10.60;59.00;;;6.00;100.00;94856.31;5014583;28;19912;-50
2023/04/12 02:14:32;;;;;;;;;;;10.60;59.00;;;6.01;100.00;94852.59;5013602;28;19996;-46
2023/04/12 02:17:01;;;;;;;;;;;10.60;59.00;;;6.01;100.00;94859.75;5012999;28;19912;-51
2023/04/12 02:19:27;;;;;;;;;;;10.60;59.00;;;6.00;100.00;94858.97;5013571;28;20283;-51
2023/04/12 02:21:52;;;;;;;;;;;10.60;59.10;;;6.02;100.00;94864.00;5013220;28;20287;-48
2023/04/12 02:24:19;;;;;;;;;;;10.70;59.10;;;5.91;100.00;94834.00;5033518;28;19904;-48
2023/04/12 02:26:45;;;;;;;;;;;10.70;59.10;;;5.97;100.00;94842.81;5033606;28;20298;-51
2023/04/12 02:29:11;;;;;;;;;;;10.70;59.10;;;5.98;100.00;94837.25;5021188;28;19931;-47
2023/04/12 02:31:37;;;;;;;;;;;10.60;59.20;;;5.97;100.00;94835.66;5013509;28;19912;-48
2023/04/12 02:34:04;;;;;;;;;;;10.60;59.20;;;5.91;100.00;94817.34;5013817;28;19904;-47
2023/04/12 02:36:30;;;;;;;;;;;10.60;59.20;;;5.87;100.00;94834.78;5032962;28;20386;-46
2023/04/12 02:38:57;;;;;;;;;;;10.60;59.20;;;5.85;100.00;94865.94;5033343;28;19904;-48
2023/04/12 02:41:23;;;;;;;;;;;10.60;59.20;;;5.86;100.00;94863.06;5019632;28;20368;-47
2023/04/12 02:43:50;;;;;;;;;;;10.60;59.30;;;5.88;100.00;94866.22;5013456;28;19970;-48
2023/04/12 02:46:22;;;;;;;;;;;10.50;59.30;;;5.92;100.00;94850.66;5015437;28;20610;-46
2023/04/12 02:48:48;;;;;;;;;;;10.60;59.40;;;5.93;100.00;94853.09;5032919;28;20426;-48
2023/04/12 02:51:14;;;;;;;;;;;10.60;59.40;;;5.92;100.00;94835.63;5032885;28;19959;-49
2023/04/12 02:53:40;;;;;;;;;;;10.60;59.40;;;5.92;100.00;94817.13;5016580;28;19908;-48
2023/04/12 02:56:07;;;;;;;;;;;10.50;59.40;;;5.84;100.00;94795.63;5012654;28;19915;-46
2023/04/12 02:58:34;;;;;;;;;;;10.50;59.40;;;5.85;100.00;94824.44;5012024;28;19905;-48
2023/04/12 03:01:00;;;;;;;;;;;10.60;59.50;;;5.83;100.00;94825.75;5012745;28;19905;-50
2023/04/12 03:03:30;;;;;;;;;;;10.50;59.50;;;5.88;100.00;94825.78;5012775;28;20371;-47
2023/04/12 03:05:57;;;;;;;;;;;10.50;59.50;;;5.90;100.00;94823.69;5028720;28;20358;-49
2023/04/12 03:08:23;;;;;;;;;;;10.50;59.60;;;5.87;100.00;94822.34;5032812;28;19904;-48
2023/04/12 03:10:49;;;;;;;;;;;10.50;59.60;;;5.89;100.00;94820.25;5023562;28;19912;-47
2023/04/12 03:13:15;;;;;;;;;;;10.50;59.60;;;5.89;100.00;94824.72;5011641;28;19905;-52
2023/04/12 03:15:42;;;;;;;;;;;10.50;59.60;;;5.92;100.00;94816.28;5012484;28;20003;-47
2023/04/12 03:18:09;;;;;;;;;;;10.50;59.70;;;5.91;100.00;94791.72;5011851;28;19905;-47
2023/04/12 03:20:38;;;;;;;;;;;10.60;59.70;;;5.87;100.00;94785.34;5012906;28;19912;-47
2023/04/12 03:23:04;;;;;;;;;;;10.60;59.70;;;5.89;100.00;94777.16;5011879;28;19927;-47
2023/04/12 03:25:30;;;;;;;;;;;10.50;59.70;;;5.88;100.00;94786.94;5012537;28;19912;-47
2023/04/12 03:27:56;;;;;;;;;;;10.60;59.80;;;5.86;100.00;94777.66;5012272;28;20394;-47
2023/04/12 03:30:21;;;;;;;;;;;10.50;59.80;;;5.88;100.00;94778.22;5011611;28;19905;-47
2023/04/12 03:32:47;;;;;;;;;;;10.50;59.80;;;5.90;100.00;94768.19;5012389;28;20282;-47
2023/04/12 03:35:13;;;;;;;;;;;10.50;59.80;;;5.89;100.00;94767.41;5011433;28;19909;-49
2023/04/12 03:37:41;;;;;;;;;;;10.50;59.80;;;5.90;100.00;94771.63;5012397;28;19905;-52
2023/04/12 03:40:08;;;;;;;;;;;10.60;59.90;;;5.92;100.00;94781.94;5011480;28;19911;-49
2023/04/12 03:42:35;;;;;;;;;;;10.60;59.90;;;5.93;100.00;94780.94;5011995;28;19905;-47
2023/04/12 03:45:01;;;;;;;;;;;10.60;60.00;;;5.94;100.00;94766.66;5012209;28;19974;-47
2023/04/12 03:47:27;;;;;;;;;;;10.60;60.70;;;5.85;100.00;94752.28;5011351;28;19935;-48
2023/04/12 03:50:05;;;;;;;;;;;10.60;59.90;;;5.79;100.00;94733.75;5012291;28;20363;-49
2023/04/12 03:52:32;;;;;;;;;;;10.60;59.90;;;5.78;100.00;94720.78;5013924;28;19904;-48
2023/04/12 03:54:58;;;;;;;;;;;10.60;59.90;;;5.72;100.00;94701.47;5031743;28;19908;-47
2023/04/12 03:57:24;;;;;;;;;;;10.60;60.00;;;5.80;100.00;94710.78;5031952;28;20267;-49
2023/04/12 03:59:51;;;;;;;;;;;10.60;60.00;;;5.83;100.00;94723.47;5015502;28;19911;-47
2023/04/12 04:02:17;;;;;;;;;;;10.50;60.10;;;5.90;100.00;94718.75;5006535;28;19909;-47
2023/04/12 04:04:43;;;;;;;;;;;10.50;60.10;;;5.90;100.00;94739.91;4990421;28;19999;-46
2023/04/12 04:07:10;;;;;;;;;;;10.50;60.10;;;5.94;100.00;94742.84;5010266;28;19970;-48
2023/04/12 04:09:36;;;;;;;;;;;10.60;60.30;;;5.93;100.00;94746.56;5011769;28;19996;-46
2023/04/12 04:12:01;;;;;;;;;;;10.50;60.30;;;5.96;100.00;94730.19;5009561;28;19991;-50
2023/04/12 04:14:27;;;;;;;;;;;10.50;60.30;;;5.99;100.00;94721.75;5011727;28;19959;-47
2023/04/12 04:16:54;;;;;;;;;;;10.60;60.50;;;5.98;100.00;94714.84;5010702;28;20363;-47
2023/04/12 04:19:20;;;;;;;;;;;10.60;60.40;;;5.99;100.00;94693.47;5011938;28;20319;-48
2023/04/12 04:21:46;;;;;;;;;;;10.60;60.40;;;6.00;100.00;94712.75;5026827;28;20003;-51
2023/04/12 04:24:13;;;;;;;;;;;10.60;60.40;;;6.01;100.00;94719.63;5010767;28;19905;-47
2023/04/12 04:26:39;;;;;;;;;;;10.60;60.40;;;6.00;100.00;94732.06;5011643;28;19905;-47
2023/04/12 04:29:05;;;;;;;;;;;10.60;60.40;;;6.00;100.00;94729.41;5011392;28;19905;-47
2023/04/12 04:31:35;;;;;;;;;;;10.70;60.50;;;5.98;100.00;94738.66;5012251;28;20419;-48
2023/04/12 04:34:05;;;;;;;;;;;10.70;60.40;;;5.98;100.00;94739.44;5011652;28;19905;-48
2023/04/12 04:36:34;;;;;;;;;;;10.70;60.40;;;6.01;100.00;94728.34;5014779;28;20011;-48
2023/04/12 04:39:01;;;;;;;;;;;10.70;60.50;;;6.04;100.00;94727.03;5011387;28;20011;-51
2023/04/12 04:41:26;;;;;;;;;;;10.70;60.50;;;6.02;100.00;94724.69;5010698;28;19912;-47
2023/04/12 04:43:53;;;;;;;;;;;10.60;60.50;;;5.98;100.00;94718.28;5011812;28;20438;-47
2023/04/12 04:46:22;;;;;;;;;;;10.60;60.50;;;5.94;100.00;94716.44;5013411;28;19982;-49
2023/04/12 04:48:50;;;;;;;;;;;10.60;60.60;;;5.97;100.00;94724.63;5031172;28;20020;-47
2023/04/12 04:51:17;;;;;;;;;;;10.60;60.60;;;6.01;100.00;94707.19;5031221;28;19905;-50
2023/04/12 04:53:43;;;;;;;;;;;10.60;60.70;;;6.02;100.00;94703.53;5015085;28;19912;-50
2023/04/12 04:56:10;;;;;;;;;;;10.60;60.70;;;6.02;100.00;94715.94;5026325;28;19955;-46
2023/04/12 04:58:36;;;;;;;;;;;10.60;60.70;;;6.03;100.00;94706.97;5010384;28;19911;-47
2023/04/12 05:01:02;;;;;;;;;;;10.60;60.70;;;6.06;100.00;94689.78;5011592;28;19959;-52
2023/04/12 05:03:28;;;;;;;;;;;10.60;60.80;;;6.04;100.00;94684.75;5011395;28;19905;-46
2023/04/12 05:05:55;;;;;;;;;;;10.70;60.80;;;6.01;100.00;94680.75;5010382;28;19905;-47
2023/04/12 05:08:22;;;;;;;;;;;10.70;60.80;;;6.02;100.00;94676.28;5011183;28;19908;-46
2023/04/12 05:10:52;;;;;;;;;;;10.70;60.80;;;6.00;100.00;94676.53;5010694;28;19970;-48
2023/04/12 05:13:18;;;;;;;;;;;10.70;60.80;;;6.05;100.00;94670.50;5011324;28;19912;-49
2023/04/12 05:15:44;;;;;;;;;;;10.70;60.90;;;6.05;100.00;94665.22;5011613;28;20272;-47
2023/04/12 05:18:10;;;;;;;;;;;10.70;60.90;;;6.07;100.00;94667.56;5011568;28;19905;-47
2023/04/12 05:20:39;;;;;;;;;;;10.70;60.90;;;6.13;100.00;94666.53;5007643;28;20005;-47
2023/04/12 05:23:05;;;;;;;;;;;10.70;60.90;;;6.13;100.00;94659.41;5011650;28;19996;-46
2023/04/12 05:25:33;;;;;;;;;;;10.80;61.00;;;6.16;100.00;94660.75;5013498;28;20331;-47
2023/04/12 05:28:00;;;;;;;;;;;10.80;61.00;;;6.19;100.00;94666.31;5012299;28;19947;-47
2023/04/12 05:30:25;;;;;;;;;;;10.80;61.00;;;6.19;100.00;94661.00;5012250;28;20023;-47
2023/04/12 05:32:51;;;;;;;;;;;10.80;61.10;;;6.21;100.00;94660.78;5012694;28;19955;-48
2023/04/12 05:35:17;;;;;;;;;;;10.80;61.10;;;6.24;100.00;94657.59;5012150;28;20264;-49
2023/04/12 05:37:43;;;;;;;;;;;10.90;61.20;;;6.29;100.00;94651.53;5014387;28;20329;-47
2023/04/12 05:40:09;;;;;;;;;;;10.90;61.20;;;6.34;100.00;94640.97;5012776;28;20354;-46
2023/04/12 05:42:36;;;;;;;;;;;10.90;61.20;;;6.38;100.00;94642.03;5013473;28;19905;-47
2023/04/12 05:45:03;;;;;;;;;;;10.90;61.10;;;6.41;100.00;94637.00;5014035;28;19913;-48
2023/04/12 05:47:29;;;;;;;;;;;11.00;61.20;;;6.44;100.00;94636.50;5012662;28;19905;-49
2023/04/12 05:49:55;;;;;;;;;;;11.00;61.20;;;6.47;100.00;94630.69;5018418;28;20533;-50
2023/04/12 05:52:20;;;;;;;;;;;11.00;61.20;;;6.52;100.00;94632.56;5018858;28;19904;-52
2023/04/12 05:54:46;;;;;;;;;;;11.10;61.20;;;6.54;100.00;94634.94;5021312;28;19939;-50
2023/04/12 05:57:12;;;;;;;;;;;11.10;61.20;;;6.56;100.00;94633.63;5012796;28;20542;-53
2023/04/12 05:59:39;;;;;;;;;;;11.20;61.20;;;6.56;100.00;94636.25;5011989;28;19905;-52
2023/04/12 06:02:06;;;;;;;;;;;11.20;61.20;;;6.57;100.00;94629.91;5013863;28;20426;-49
2023/04/12 06:04:32;;;;;;;;;;;11.20;61.20;;;6.58;100.00;94620.94;5011475;28;20375;-45
2023/04/12 06:06:58;;;;;;;;;;;11.20;61.10;;;6.60;100.00;94605.56;5012706;28;19905;-49
2023/04/12 06:09:23;;;;;;;;;;;11.30;61.20;;;6.62;100.00;94602.66;5012830;28;19904;-51
2023/04/12 06:11:51;;;;;;;;;;;11.30;61.10;;;6.66;100.00;94591.28;5013049;28;19940;-50
2023/04/12 06:14:16;;;;;;;;;;;11.30;61.10;;;6.69;100.00;94580.16;5013719;28;19909;-49
2023/04/12 06:16:42;;;;;;;;;;;11.40;61.00;;;6.71;100.00;94579.91;5018866;28;19969;-53
2023/04/12 06:19:09;;;;;;;;;;;11.40;60.90;;;6.76;100.00;94587.06;5033350;28;19961;-51
2023/04/12 06:21:35;;;;;;;;;;;11.50;60.90;;;6.73;100.00;94575.94;5033706;28;19940;-51
2023/04/12 06:24:01;;;;;;;;;;;11.60;60.90;;;6.82;100.00;94559.53;5013848;28;19959;-49
2023/04/12 06:26:26;;;;;;;;;;;11.60;60.80;;;6.89;100.00;94560.03;5013294;28;19916;-47
2023/04/12 06:28:52;;;;;;;;;;;11.70;60.90;;;6.92;100.00;94560.31;5011969;28;19958;-51
2023/04/12 06:31:18;;;;;;;;;;;11.70;60.80;;;6.97;100.00;94553.44;5012943;28;20397;-50
2023/04/12 06:33:44;;;;;;;;;;;11.80;61.60;;;7.00;100.00;94550.25;5013307;28;19905;-49
2023/04/12 06:36:10;;;;;;;;;;;11.80;60.70;;;7.05;100.00;94556.34;5012296;28;19956;-49
2023/04/12 06:38:36;;;;;;;;;;;11.90;60.80;;;7.11;100.00;94565.06;5010767;28;19909;-50
2023/04/12 06:41:02;;;;;;;;;;;11.90;60.80;;;7.20;100.00;94566.09;5009732;28;19920;-52
2023/04/12 06:43:27;;;;;;;;;;;11.90;60.80;;;7.20;100.00;94563.44;5010733;28;19909;-48
2023/04/12 06:45:55;;;;;;;;;;;12.00;60.80;;;7.21;100.00;94546.53;5010563;28;19920;-50
2023/04/12 06:48:21;;;;;;;;;;;12.10;60.70;;;7.25;100.00;94560.81;5011449;28;19908;-50
2023/04/12 06:50:47;;;;;;;;;;;12.20;60.60;;;7.27;100.00;94556.03;5012801;28;19913;-51
2023/04/12 06:53:13;;;;;;;;;;;12.30;60.60;;;7.34;100.00;94556.56;5022626;28;19989;-52
2023/04/12 06:55:39;;;;;;;;;;;12.30;60.50;;;7.47;100.00;94554.41;5031241;28;20054;-52
2023/04/12 06:58:05;;;;;;;;;;;12.40;60.40;;;7.54;100.00;94545.09;5031500;28;20329;-52
2023/04/12 07:00:31;;;;;;;;;;;12.60;60.40;;;7.67;100.00;94541.06;5032489;28;19911;-51
2023/04/12 07:02:57;;;;;;;;;;;12.70;60.20;;;7.81;100.00;94531.47;5032734;28;19996;-51
2023/04/12 07:05:23;;;;;;;;;;;12.90;60.10;;;7.90;100.00;94529.06;5019896;28;19912;-50
2023/04/12 07:07:48;;;;;;;;;;;13.10;59.90;;;8.03;100.00;94517.84;5013018;28;19909;-52
2023/04/12 07:10:14;;;;;;;;;;;13.30;59.80;;;8.19;100.00;94515.88;5011549;28;19988;-53
2023/04/12 07:12:41;;;;;;;;;;;13.50;59.70;;;8.30;100.00;94509.47;5012493;28;19912;-53
2023/04/12 07:15:07;;;;;;;;;;;13.70;59.60;;;8.48;100.00;94507.22;5012598;28;20082;-51
2023/04/12 07:17:33;;;;;;;;;;;13.90;60.00;;;8.58;99.16;94501.84;5012028;28;20306;-52
2023/04/12 07:19:59;;;;;;;;;;;14.10;59.20;;;8.71;96.70;94498.56;5011274;28;19905;-51
2023/04/12 07:22:25;;;;;;;;;;;14.40;59.00;;;8.95;97.59;94489.84;5010689;28;20349;-50
2023/04/12 07:24:51;;;;;;;;;;;14.60;58.80;;;9.17;96.29;94470.75;5011439;28;19905;-51
2023/04/12 07:27:16;;;;;;;;;;;14.90;58.80;;;9.30;93.83;94474.59;5012564;28;20325;-50
2023/04/12 07:29:42;;;;;;;;;;;15.00;58.60;;;9.45;92.65;94483.19;5011451;28;19995;-52
2023/04/12 07:32:09;;;;;;;;;;;15.10;58.40;;;9.59;93.43;94479.84;5012337;28;19908;-48
2023/04/12 07:34:36;;;;;;;;;;;15.20;58.40;;;9.72;90.60;94479.94;5011318;28;19905;-48
2023/04/12 07:37:02;;;;;;;;;;;15.30;58.90;;;9.82;89.33;94472.91;5012336;28;20327;-52
2023/04/12 07:39:28;;;;;;;;;;;15.50;58.10;;;9.98;88.98;94474.28;5012148;28;20322;-53
2023/04/12 07:41:54;;;;;;;;;;;15.60;57.90;;;10.20;89.99;94479.81;5010914;28;19951;-51
2023/04/12 07:44:20;;;;;;;;;;;15.90;57.60;;;10.53;87.65;94482.56;5011891;28;19904;-48
2023/04/12 07:46:47;;;;;;;;;;;16.30;57.50;;;10.83;85.49;94469.81;5011449;28;19974;-53
2023/04/12 07:49:12;;;;;;;;;;;16.70;57.30;;;11.02;82.74;94470.56;5012407;28;19905;-50
2023/04/12 07:51:38;;;;;;;;;;;16.90;57.10;;;11.26;81.69;94472.28;5021683;28;20274;-51
2023/04/12 07:54:04;;;;;;;;;;;17.20;56.90;;;11.47;82.39;94475.31;5020476;28;19911;-53
2023/04/12 07:56:34;;;;;;;;;;;17.30;56.60;;;11.61;80.74;94476.13;5011800;28;20294;-53
2023/04/12 07:59:00;;;;;;;;;;;17.50;56.50;;;11.67;79.97;94472.25;5018230;28;19904;-51
2023/04/12 08:01:26;;;;;;;;;;;17.60;56.10;;;11.64;80.24;94467.53;5031970;28;20276;-50
2023/04/12 08:03:52;;;;;;;;;;;17.70;55.80;;;11.85;80.92;94465.25;5031552;28;19905;-50
2023/04/12 08:06:17;;;;;;;;;;;17.80;55.70;;;12.00;78.85;94464.13;5012524;28;19958;-52
2023/04/12 08:08:43;;;;;;;;;;;18.00;55.60;;;12.17;77.27;94466.19;5011750;28;19905;-50
2023/04/12 08:11:09;;;;;;;;;;;18.20;55.40;;;12.26;75.55;94462.47;5002682;28;19952;-52
2023/04/12 08:13:35;;;;;;;;;;;18.40;55.10;;;12.49;75.86;94463.28;4992002;28;19909;-50
2023/04/12 08:16:01;;;;;;;;;;;18.70;54.90;;;12.69;73.40;94462.03;4991945;28;19970;-49
2023/04/12 08:18:28;;;;;;;;;;;18.90;54.70;;;12.98;73.97;94473.34;5029964;28;20264;-49
2023/04/12 08:20:57;;;;;;;;;;;19.20;54.50;;;13.24;72.38;94468.91;5031692;28;19904;-53
2023/04/12 08:23:25;;;;;;;;;;;19.50;54.30;;;13.18;70.58;94473.59;5029459;28;19927;-51
2023/04/12 08:26:01;;;;;;;;;;;19.70;53.80;;;13.30;71.79;94477.63;5010531;28;19928;-50
2023/04/12 08:28:28;;;;;;;;;;;19.80;53.50;;;13.41;70.40;94468.22;5011077;28;19905;-52
2023/04/12 08:30:53;;;;;;;;;;;19.90;53.40;;;13.55;71.29;94458.22;5011877;28;20347;-51
2023/04/12 08:33:20;;;;;;;;;;;20.10;53.10;;;13.49;68.83;94453.31;5011666;28;20008;-53
2023/04/12 08:35:45;;;;;;;;;;;20.20;52.90;;;13.67;68.04;94464.88;5010727;28;19909;-49
2023/04/12 08:38:11;;;;;;;;;;;20.30;52.70;;;13.70;67.43;94469.59;5011733;28;20434;-55
2023/04/12 08:40:40;;;;;;;;;;;20.30;52.20;;;13.82;67.64;94461.72;5013796;28;20349;-55
2023/04/12 08:43:10;;;;;;;;;;;20.40;51.90;;;13.98;66.16;94457.53;5030438;28;19909;-53
2023/04/12 08:45:37;;;;;;;;;;;20.50;51.90;;;13.98;65.72;94460.22;5030803;28;19912;-56
2023/04/12 08:48:04;;;;;;;;;;;20.60;51.60;;;14.12;64.79;94454.69;5014690;28;20295;-56
2023/04/12 08:50:31;;;;;;;;;;;20.70;51.40;;;14.16;65.20;94449.50;5011473;28;19908;-53
2023/04/12 08:53:00;;;;;;;;;;;20.80;51.20;;;14.45;65.04;94448.88;5012785;28;19909;-54
2023/04/12 08:55:26;;;;;;;;;;;21.10;51.10;;;14.48;64.84;94453.63;5014408;28;19940;-54
2023/04/12 08:57:55;;;;;;;;;;;21.40;50.80;;;14.71;65.34;94448.88;5015340;28;19959;-55
2023/04/12 09:00:21;;;;;;;;;;;21.70;50.60;;;14.96;66.58;94448.06;5014453;28;19995;-54
2023/04/12 09:02:47;;;;;;;;;;;22.10;50.20;;;15.37;60.81;94443.97;5014957;28;20015;-49
2023/04/12 09:05:14;;;;;;;;;;;22.40;49.80;;;15.85;61.60;94442.81;5014272;28;20374;-51
2023/04/12 09:07:41;;;;;;;;;;;22.70;49.40;;;16.23;60.14;94438.44;5014992;28;20007;-56
2023/04/12 09:10:07;;;;;;;;;;;23.10;49.30;;;16.48;56.32;94442.06;5003348;28;19906;-55
2023/04/12 09:12:33;;;;;;;;;;;23.50;48.80;;;16.70;59.05;94452.44;5015255;28;19905;-56
2023/04/12 09:15:13;;;;;;;;;;;23.70;48.20;;;16.61;56.40;94438.31;5014834;28;19909;-51
2023/04/12 09:17:40;;;;;;;;;;;23.90;47.40;;;16.83;57.25;94440.66;5005361;28;19906;-54
2023/04/12 09:20:15;;;;;;;;;;;24.10;47.10;;;16.85;56.93;94432.25;5012836;28;19913;-51
2023/04/12 09:22:44;;;;;;;;;;;24.40;46.60;;;16.53;56.94;94428.41;5013878;28;19905;-53
2023/04/12 09:25:12;;;;;;;;;;;24.60;45.70;;;16.87;56.49;94425.44;5014292;28;20429;-54
2023/04/12 09:27:51;;;;;;;;;;;24.80;45.30;;;17.04;59.24;94427.16;5014714;28;19904;-56
2023/04/12 09:30:19;;;;;;;;;;;25.00;44.80;;;17.31;56.11;94430.34;5013771;28;19908;-53
2023/04/12 09:32:48;;;;;;;;;;;25.30;44.50;;;16.77;53.33;94400.88;5014440;28;19905;-53
2023/04/12 09:35:14;;;;;;;;;;;25.50;42.80;;;16.33;53.99;94411.22;5013426;28;19962;-54
2023/04/12 09:37:40;;;;;;;;;;;25.60;41.50;;;16.19;54.83;94412.25;5014655;28;19948;-53
2023/04/12 09:40:09;;;;;;;;;;;25.50;41.20;;;16.55;54.47;94410.84;5012846;28;20354;-49
2023/04/12 09:42:50;;;;;;;;;;;25.50;41.00;;;16.86;53.11;94406.94;4994761;28;20078;-55
2023/04/12 09:45:23;;;;;;;;;;;25.40;41.30;;;17.00;53.23;94407.41;4993199;28;19963;-52
2023/04/12 09:47:49;;;;;;;;;;;25.30;41.20;;;16.93;52.77;94401.81;5008799;28;19992;-55
2023/04/12 09:50:27;;;;;;;;;;;25.10;41.30;;;16.47;53.53;94394.78;5014481;28;19957;-53
2023/04/12 09:52:55;;;;;;;;;;;25.10;40.90;;;16.99;53.56;94397.78;5013281;28;20059;-51
2023/04/12 09:55:28;;;;;;;;;;;25.20;40.70;;;16.50;51.46;94391.44;5014352;28;19909;-52
2023/04/12 09:57:55;;;;;;;;;;;25.30;40.30;;;16.49;52.67;94398.72;5014185;28;19909;-53
2023/04/12 10:00:26;;;;;;;;;;;25.30;39.70;;;16.21;51.79;94392.34;5013364;28;20280;-50
2023/04/12 10:02:54;;;;;;;;;;;25.20;39.20;;;16.03;52.61;94389.78;5014032;28;19905;-55
2023/04/12 10:05:24;;;;;;;;;;;25.10;38.70;;;15.94;52.44;94391.75;5012618;28;19975;-53
2023/04/12 10:07:51;;;;;;;;;;;24.80;38.50;;;15.86;53.08;94388.00;5012880;28;20046;-54
2023/04/12 10:10:19;;;;;;;;;;;24.50;38.60;;;15.81;53.28;94398.16;5012798;28;19908;-50
2023/04/12 10:12:47;;;;;;;;;;;24.30;38.70;;;15.82;52.81;94397.81;5013855;28;19986;-50
2023/04/12 10:15:20;;;;;;;;;;;24.20;38.70;;;16.13;52.64;94402.81;5013976;28;20331;-52
2023/04/12 10:17:51;;;;;;;;;;;24.10;38.90;;;16.46;51.63;94396.69;5013319;28;19937;-53
2023/04/12 10:20:20;;;;;;;;;;;24.10;39.20;;;16.04;52.16;94385.19;5013733;28;19905;-51
2023/04/12 10:22:49;;;;;;;;;;;24.00;38.80;;;15.83;51.87;94394.03;5012574;28;19909;-52
2023/04/12 10:25:25;;;;;;;;;;;23.90;38.70;;;15.76;54.83;94392.97;5012490;28;20003;-51
2023/04/12 10:27:52;;;;;;;;;;;23.80;38.40;;;15.99;52.17;94393.47;5012831;28;20295;-51
2023/04/12 10:30:19;;;;;;;;;;;23.80;38.70;;;16.24;52.45;94402.44;5012779;28;19905;-56
2023/04/12 10:32:46;;;;;;;;;;;23.80;38.60;;;16.57;50.87;94405.91;5013691;28;20331;-55
2023/04/12 10:35:11;;;;;;;;;;;24.10;38.70;;;16.73;49.53;94397.22;5011002;28;19958;-56
2023/04/12 10:37:57;;;;;;;;;;;24.50;38.40;;;16.97;50.19;94396.53;5013536;28;19904;-56
2023/04/12 10:40:23;;;;;;;;;;;24.80;38.00;;;16.87;49.76;94398.53;5015051;28;19916;-54
2023/04/12 10:43:21;;;;;;;;;;;25.20;37.40;;;17.41;49.90;94404.88;5031579;28;19905;-55
2023/04/12 10:45:48;;;;;;;;;;;25.60;37.00;;;17.69;47.58;94396.91;5032722;28;19962;-55
2023/04/12 10:48:50;;;;;;;;;;;25.90;37.00;;;17.53;48.16;94396.81;5014719;28;19904;-54
2023/04/12 10:51:24;;;;;;;;;;;26.20;36.80;;;17.78;50.15;94401.09;5012114;28;19944;-55
2023/04/12 10:53:51;;;;;;;;;;;26.20;36.70;;;17.61;51.05;94395.13;5012519;28;19947;-56
2023/04/12 10:56:42;;;;;;;;;;;26.00;37.00;;;17.56;50.63;94426.53;5012995;28;19913;-56
2023/04/12 10:59:15;;;;;;;;;;;25.90;37.10;;;17.89;54.20;94408.69;5012211;28;19940;-55
2023/04/12 11:02:03;;;;;;;;;;;26.00;37.30;;;17.87;50.56;94411.75;5005325;28;19979;-56
2023/04/12 11:04:29;;;;;;;;;;;26.10;37.50;;;17.79;52.02;94432.28;5027052;28;20412;-55
2023/04/12 11:07:00;;;;;;;;;;;25.80;37.70;;;16.93;50.84;94433.31;5011756;28;19904;-53
2023/04/12 11:09:29;;;;;;;;;;;25.50;37.70;;;16.76;51.27;94426.97;5012576;28;19909;-55
2023/04/12 11:12:12;;;;;;;;;;;25.00;37.80;;;16.40;52.53;94419.53;5010462;28;19904;-55
2023/04/12 11:14:48;;;;;;;;;;;24.60;37.90;;;16.23;53.24;94416.97;5012521;28;20359;-56
2023/04/12 11:17:17;;;;;;;;;;;24.20;38.10;;;16.04;54.53;94420.09;5021286;28;20283;-56
2023/04/12 11:19:56;;;;;;;;;;;23.90;38.50;;;15.99;53.32;94425.69;5032399;28;20290;-54
2023/04/12 11:22:26;;;;;;;;;;;23.50;38.80;;;15.91;54.24;94422.72;5030758;28;19927;-55
2023/04/12 11:24:55;;;;;;;;;;;23.10;39.10;;;15.54;55.71;94415.47;5019193;28;20007;-54